createdAt,value
2018-04-28T00:00:15.635Z,97.30
2018-04-28T00:02:43.184Z,97.40
2018-04-28T00:05:10.723Z,97.40
2018-04-28T00:07:38.293Z,97.60
2018-04-28T00:10:05.836Z,97.70
2018-04-28T00:12:33.366Z,97.60
2018-04-28T00:15:00.942Z,97.60
2018-04-28T00:17:36.480Z,97.60
2018-04-28T00:20:04.030Z,97.70
2018-04-28T00:22:34.355Z,97.80
2018-04-28T00:25:08.563Z,97.70
2018-04-28T00:27:36.106Z,97.80
2018-04-28T00:30:07.967Z,98.00
2018-04-28T00:32:37.801Z,98.20
2018-04-28T00:35:08.279Z,98.10
2018-04-28T00:37:35.819Z,98.30
2018-04-28T00:40:07.825Z,98.10
2018-04-28T00:42:37.289Z,98.30
2018-04-28T00:45:09.374Z,98.40
2018-04-28T00:47:36.896Z,98.50
2018-04-28T00:50:09.067Z,98.50
2018-04-28T00:52:36.592Z,98.90
2018-04-28T00:55:08.745Z,98.70
2018-04-28T00:57:57.271Z,98.80
2018-04-28T01:00:33.711Z,98.90
2018-04-28T01:03:01.258Z,98.90
2018-04-28T01:05:30.529Z,99.10
2018-04-28T01:07:58.053Z,99.20
2018-04-28T01:10:27.099Z,99.20
2018-04-28T01:12:55.536Z,99.20
2018-04-28T01:15:23.087Z,99.30
2018-04-28T01:17:54.190Z,99.30
2018-04-28T01:20:30.000Z,99.20
2018-04-28T01:23:00.469Z,99.20
2018-04-28T01:25:40.560Z,99.50
2018-04-28T01:28:10.920Z,99.40
2018-04-28T01:30:38.492Z,99.70
2018-04-28T01:33:40.474Z,99.80
2018-04-28T01:36:23.686Z,99.90
2018-04-28T01:41:56.755Z,99.90
2018-04-28T01:44:29.840Z,99.90
2018-04-28T01:46:58.072Z,99.90
2018-04-28T01:49:29.225Z,99.90
2018-04-28T01:52:09.386Z,99.90
2018-04-28T01:54:49.436Z,99.90
2018-04-28T01:57:28.575Z,99.90
2018-04-28T02:00:03.426Z,99.90
2018-04-28T02:02:36.800Z,99.90
2018-04-28T02:05:07.546Z,99.90
2018-04-28T02:07:36.612Z,99.90
2018-04-28T02:10:04.163Z,99.90
2018-04-28T02:15:37.416Z,99.90
2018-04-28T02:18:07.591Z,99.90
2018-04-28T02:23:39.494Z,99.90
2018-04-28T02:26:19.416Z,99.90
2018-04-28T02:31:51.674Z,99.90
2018-04-28T02:34:23.832Z,99.90
2018-04-28T02:36:56.975Z,99.90
2018-04-28T02:39:26.478Z,99.90
2018-04-28T02:42:11.570Z,99.90
2018-04-28T02:44:50.594Z,99.90
2018-04-28T02:47:22.975Z,99.90
2018-04-28T02:49:54.794Z,99.90
2018-04-28T02:52:49.489Z,99.90
2018-04-28T02:58:40.293Z,99.90
2018-04-28T03:04:15.272Z,99.90
2018-04-28T03:10:01.557Z,99.90
2018-04-28T03:12:29.111Z,99.90
2018-04-28T03:15:04.007Z,99.90
2018-04-28T03:17:38.794Z,99.90
2018-04-28T03:20:12.267Z,99.90
2018-04-28T03:22:40.564Z,99.90
2018-04-28T03:25:11.922Z,99.90
2018-04-28T03:30:37.248Z,99.90
2018-04-28T03:33:14.487Z,99.90
2018-04-28T03:35:46.537Z,99.90
2018-04-28T03:38:22.824Z,99.90
2018-04-28T03:43:46.649Z,99.90
2018-04-28T03:46:16.117Z,99.90
2018-04-28T03:49:00.307Z,99.90
2018-04-28T03:51:34.586Z,99.90
2018-04-28T03:54:05.473Z,99.90
2018-04-28T03:56:36.620Z,99.90
2018-04-28T03:59:16.045Z,99.90
2018-04-28T04:01:55.483Z,99.90
2018-04-28T04:04:25.990Z,99.90
2018-04-28T04:07:00.230Z,99.90
2018-04-28T04:09:35.342Z,99.90
2018-04-28T04:12:11.349Z,99.90
2018-04-28T04:14:47.701Z,99.90
2018-04-28T04:17:21.270Z,99.90
2018-04-28T04:20:02.584Z,99.90
2018-04-28T04:25:50.568Z,99.90
2018-04-28T04:28:36.589Z,99.90
2018-04-28T04:31:05.608Z,99.90
2018-04-28T04:34:08.408Z,99.90
2018-04-28T04:36:47.989Z,99.90
2018-04-28T04:42:31.697Z,99.30
2018-04-28T04:45:03.833Z,95.80
2018-04-28T04:47:52.092Z,95.80
2018-04-28T04:50:26.491Z,94.60
2018-04-28T04:56:13.374Z,91.90
2018-04-28T04:58:42.518Z,91.30
2018-04-28T05:04:22.529Z,88.80
2018-04-28T05:07:16.272Z,89.30
2018-04-28T05:09:55.686Z,89.20
2018-04-28T05:12:25.012Z,89.70
2018-04-28T05:15:04.363Z,89.00
2018-04-28T05:17:49.571Z,87.80
2018-04-28T05:23:32.551Z,85.20
2018-04-28T05:26:02.016Z,88.00
2018-04-28T05:31:56.538Z,90.90
2018-04-28T05:34:32.819Z,92.00
2018-04-28T05:37:09.888Z,92.70
2018-04-28T05:40:00.111Z,93.50
2018-04-28T05:42:32.399Z,93.50
2018-04-28T05:45:20.500Z,93.60
2018-04-28T05:51:01.806Z,94.10
2018-04-28T05:53:41.122Z,94.60
2018-04-28T05:56:17.256Z,92.00
2018-04-28T06:02:04.856Z,90.00
2018-04-28T06:07:54.084Z,89.90
2018-04-28T06:10:27.395Z,88.40
2018-04-28T06:13:06.920Z,85.50
2018-04-28T06:18:44.103Z,80.20
2018-04-28T06:21:11.933Z,84.00
2018-04-28T06:23:39.533Z,87.00
2018-04-28T06:26:07.145Z,87.20
2018-04-28T06:28:34.636Z,85.10
2018-04-28T06:31:02.180Z,87.30
2018-04-28T06:33:29.800Z,84.50
2018-04-28T06:35:57.353Z,84.60
2018-04-28T06:38:24.958Z,83.10
2018-04-28T06:40:53.317Z,88.30
2018-04-28T06:43:20.849Z,88.30
2018-04-28T06:45:48.412Z,86.40
2018-04-28T06:48:15.936Z,88.70
2018-04-28T06:50:43.477Z,88.00
2018-04-28T06:53:11.799Z,89.20
2018-04-28T06:55:39.348Z,89.20
2018-04-28T06:58:06.895Z,88.40
2018-04-28T07:00:34.428Z,87.50
2018-04-28T07:03:03.751Z,84.40
2018-04-28T07:05:31.317Z,84.20
2018-04-28T07:07:58.876Z,81.60
2018-04-28T07:10:26.424Z,78.70
2018-04-28T07:12:54.014Z,78.30
2018-04-28T07:15:22.572Z,73.80
2018-04-28T07:17:50.127Z,71.40
2018-04-28T07:20:18.416Z,68.50
2018-04-28T07:22:45.975Z,68.50
2018-04-28T07:25:13.515Z,65.10
2018-04-28T07:27:41.095Z,64.80
2018-04-28T07:30:08.640Z,62.50
2018-04-28T07:32:36.184Z,63.90
2018-04-28T07:35:03.757Z,61.60
2018-04-28T07:37:32.066Z,59.00
2018-04-28T07:39:59.669Z,59.00
2018-04-28T07:42:27.302Z,59.30
2018-04-28T07:44:54.867Z,60.40
2018-04-28T07:47:23.388Z,61.80
2018-04-28T07:49:51.732Z,54.90
2018-04-28T07:52:19.310Z,54.80
2018-04-28T07:54:47.222Z,60.70
2018-04-28T07:57:14.772Z,55.70
2018-04-28T07:59:43.409Z,54.50
2018-04-28T08:02:10.966Z,54.90
2018-04-28T08:04:38.575Z,54.90
2018-04-28T08:07:06.919Z,54.00
2018-04-28T08:09:34.486Z,53.90
2018-04-28T08:12:02.062Z,50.40
2018-04-28T08:14:29.590Z,53.00
2018-04-28T08:16:57.152Z,52.00
2018-04-28T08:19:24.683Z,56.20
2018-04-28T08:21:52.274Z,49.50
2018-04-28T08:24:19.825Z,51.60
2018-04-28T08:26:47.400Z,51.90
2018-04-28T08:29:14.929Z,53.10
2018-04-28T08:31:42.492Z,51.00
2018-04-28T08:34:10.037Z,49.50
2018-04-28T08:36:37.600Z,49.80
2018-04-28T08:39:05.137Z,50.00
2018-04-28T08:41:33.491Z,49.50
2018-04-28T08:44:01.072Z,49.40
2018-04-28T08:46:29.372Z,46.80
2018-04-28T08:48:56.956Z,46.60
2018-04-28T08:51:30.279Z,48.30
2018-04-28T08:53:57.822Z,43.90
2018-04-28T08:56:25.369Z,44.50
2018-04-28T08:58:52.928Z,47.00
2018-04-28T09:01:20.517Z,46.20
2018-04-28T09:03:48.104Z,46.10
2018-04-28T09:06:16.407Z,44.20
2018-04-28T09:08:43.947Z,44.10
2018-04-28T09:11:12.255Z,39.70
2018-04-28T09:13:39.812Z,39.70
2018-04-28T09:16:07.380Z,40.30
2018-04-28T09:18:35.749Z,42.00
2018-04-28T09:21:03.307Z,38.80
2018-04-28T09:23:30.882Z,40.70
2018-04-28T09:25:58.441Z,39.00
2018-04-28T09:28:25.992Z,41.80
2018-04-28T09:30:53.565Z,39.40
2018-04-28T09:33:21.126Z,42.10
2018-04-28T09:35:48.707Z,39.10
2018-04-28T09:38:16.249Z,44.80
